createdAt,value
2022-08-17T00:00:05.800Z,99.90
2022-08-17T00:02:32.910Z,99.90
2022-08-17T00:05:08.354Z,99.90
2022-08-17T00:07:35.326Z,99.90
2022-08-17T00:10:02.362Z,99.90
2022-08-17T00:12:42.907Z,99.90
2022-08-17T00:15:11.164Z,99.90
2022-08-17T00:17:38.241Z,99.90
2022-08-17T00:20:05.969Z,99.90
2022-08-17T00:22:36.319Z,99.90
2022-08-17T00:25:05.473Z,99.90
2022-08-17T00:27:32.584Z,99.90
2022-08-17T00:29:59.562Z,99.90
2022-08-17T00:33:15.571Z,99.90
2022-08-17T00:35:16.255Z,99.90
2022-08-17T00:37:43.266Z,99.90
2022-08-17T00:40:11.846Z,99.90
2022-08-17T00:42:39.182Z,99.90
2022-08-17T00:45:07.488Z,99.90
2022-08-17T00:47:34.423Z,99.90
2022-08-17T00:50:01.404Z,99.90
2022-08-17T00:52:33.145Z,99.90
2022-08-17T00:55:00.222Z,99.90
2022-08-17T00:57:31.302Z,99.90
2022-08-17T01:00:07.373Z,99.90
2022-08-17T01:02:50.887Z,99.90
2022-08-17T01:05:23.861Z,99.90
2022-08-17T01:07:52.571Z,99.90
2022-08-17T01:10:58.730Z,99.90
2022-08-17T01:13:13.618Z,99.90
2022-08-17T01:15:46.240Z,99.90
2022-08-17T01:18:14.408Z,99.90
2022-08-17T01:20:48.250Z,99.90
2022-08-17T01:23:20.646Z,99.90
2022-08-17T01:26:12.153Z,99.90
2022-08-17T01:28:54.709Z,99.90
2022-08-17T01:31:24.475Z,99.90
2022-08-17T01:33:51.550Z,99.90
2022-08-17T01:36:18.609Z,99.90
2022-08-17T01:38:46.505Z,99.90
2022-08-17T01:41:17.659Z,99.90
2022-08-17T01:44:03.830Z,99.90
2022-08-17T01:46:35.754Z,99.90
2022-08-17T01:49:07.190Z,99.90
2022-08-17T01:51:34.303Z,99.90
2022-08-17T01:54:03.322Z,99.90
2022-08-17T01:56:30.207Z,99.90
2022-08-17T01:58:57.395Z,99.90
2022-08-17T02:01:28.823Z,99.90
2022-08-17T02:04:00.396Z,99.90
2022-08-17T02:06:47.051Z,99.90
2022-08-17T02:09:25.542Z,99.90
2022-08-17T02:11:55.207Z,99.90
2022-08-17T02:14:26.871Z,99.90
2022-08-17T02:16:58.743Z,99.90
2022-08-17T02:22:30.044Z,99.90
2022-08-17T02:25:02.831Z,99.90
2022-08-17T02:27:31.731Z,99.90
2022-08-17T02:30:02.911Z,99.90
2022-08-17T02:32:33.381Z,99.90
2022-08-17T02:35:04.775Z,99.90
2022-08-17T02:37:43.879Z,99.90
2022-08-17T02:43:28.681Z,99.90
2022-08-17T02:45:58.523Z,99.90
2022-08-17T02:48:31.247Z,99.90
2022-08-17T02:51:01.598Z,99.90
2022-08-17T02:53:36.038Z,99.90
2022-08-17T02:56:06.080Z,99.90
2022-08-17T03:01:49.866Z,99.90
2022-08-17T03:04:29.498Z,99.90
2022-08-17T03:06:58.519Z,99.90
2022-08-17T03:09:25.837Z,99.90
2022-08-17T03:12:06.365Z,99.90
2022-08-17T03:18:05.516Z,99.90
2022-08-17T03:20:41.817Z,99.90
2022-08-17T03:26:29.790Z,99.90
2022-08-17T03:29:00.077Z,99.90
2022-08-17T03:31:29.311Z,99.90
2022-08-17T03:33:58.727Z,99.90
2022-08-17T03:36:26.664Z,99.90
2022-08-17T03:38:55.685Z,99.90
2022-08-17T03:41:31.549Z,99.90
2022-08-17T03:44:08.222Z,99.90
2022-08-17T03:50:01.965Z,99.90
2022-08-17T03:56:36.656Z,99.90
2022-08-17T03:59:25.837Z,99.90
2022-08-17T04:02:12.635Z,99.90
2022-08-17T04:18:15.705Z,99.90
2022-08-17T04:20:47.068Z,99.90
2022-08-17T04:23:52.398Z,99.90
2022-08-17T04:30:15.929Z,99.90
2022-08-17T04:33:17.966Z,99.90
2022-08-17T04:36:03.280Z,99.90
2022-08-17T04:39:04.466Z,99.90
2022-08-17T04:42:09.768Z,99.90
2022-08-17T04:45:02.268Z,99.90
2022-08-17T04:47:39.026Z,99.90
2022-08-17T04:50:20.590Z,99.90
2022-08-17T04:52:57.376Z,99.90
2022-08-17T04:59:08.485Z,99.90
2022-08-17T05:02:03.539Z,99.90
2022-08-17T05:04:42.182Z,99.90
2022-08-17T05:07:11.906Z,99.90
2022-08-17T05:09:40.855Z,99.90
2022-08-17T05:28:43.455Z,99.90
2022-08-17T05:31:23.150Z,99.90
2022-08-17T05:34:02.177Z,99.90
2022-08-17T05:36:43.542Z,99.90
2022-08-17T05:39:15.908Z,99.90
2022-08-17T05:41:44.174Z,99.90
2022-08-17T05:51:28.815Z,99.90
2022-08-17T05:54:24.407Z,99.90
2022-08-17T06:00:42.000Z,99.90
2022-08-17T06:03:15.164Z,99.90
2022-08-17T06:06:14.831Z,99.90
2022-08-17T06:09:00.677Z,99.90
2022-08-17T06:11:53.514Z,99.90
2022-08-17T06:14:33.113Z,99.90
2022-08-17T06:17:05.234Z,99.90
2022-08-17T06:19:37.493Z,99.90
2022-08-17T06:22:06.026Z,99.90
2022-08-17T06:24:56.848Z,99.90
2022-08-17T06:27:39.165Z,99.90
2022-08-17T06:30:16.093Z,99.90
2022-08-17T06:32:44.181Z,99.90
2022-08-17T06:35:31.808Z,99.90
2022-08-17T06:38:08.888Z,99.90
2022-08-17T06:41:05.982Z,99.90
2022-08-17T06:44:03.350Z,99.90
2022-08-17T06:46:41.017Z,99.90
2022-08-17T06:49:11.909Z,99.90
2022-08-17T06:51:44.627Z,99.90
2022-08-17T06:54:20.840Z,99.90
2022-08-17T06:56:57.596Z,99.90
2022-08-17T06:59:30.469Z,99.90
2022-08-17T07:03:02.634Z,99.90
2022-08-17T07:05:46.473Z,99.90
2022-08-17T07:08:38.648Z,99.90
2022-08-17T07:11:13.235Z,99.90
2022-08-17T07:13:49.263Z,99.90
2022-08-17T07:16:41.461Z,99.90
2022-08-17T07:19:10.777Z,99.90
2022-08-17T07:21:45.135Z,99.90
2022-08-17T07:24:30.728Z,99.90
2022-08-17T07:27:06.730Z,99.90
2022-08-17T07:29:39.513Z,99.90
2022-08-17T07:32:06.670Z,99.90
2022-08-17T07:34:58.051Z,99.90
2022-08-17T07:37:25.100Z,99.90
2022-08-17T07:40:15.261Z,99.90
2022-08-17T07:42:44.528Z,99.90
2022-08-17T07:45:33.687Z,99.90
2022-08-17T07:48:19.024Z,99.90
2022-08-17T07:50:50.758Z,99.90
2022-08-17T07:53:23.407Z,99.90
2022-08-17T07:55:51.298Z,99.90
2022-08-17T07:58:20.628Z,99.90
2022-08-17T08:01:02.218Z,99.90
2022-08-17T08:03:32.114Z,99.90
2022-08-17T08:06:07.527Z,99.90
2022-08-17T08:08:42.566Z,99.90
2022-08-17T08:14:33.739Z,95.10
2022-08-17T08:17:04.478Z,96.60
2022-08-17T08:19:33.489Z,96.80
2022-08-17T08:22:36.178Z,93.20
2022-08-17T08:25:14.491Z,92.40
2022-08-17T08:28:01.845Z,91.70
2022-08-17T08:30:30.075Z,91.90
2022-08-17T08:33:29.081Z,95.00
2022-08-17T08:36:57.064Z,93.50
2022-08-17T08:39:50.751Z,94.60
2022-08-17T08:42:25.796Z,93.20
2022-08-17T08:45:55.603Z,87.40
2022-08-17T08:48:55.717Z,87.60
2022-08-17T08:51:37.605Z,84.70
2022-08-17T08:54:31.611Z,84.40
2022-08-17T09:00:14.930Z,78.70
2022-08-17T09:03:20.281Z,77.70
2022-08-17T09:06:33.270Z,79.70
2022-08-17T09:16:12.996Z,75.30
2022-08-17T09:19:00.150Z,74.00
2022-08-17T09:21:48.760Z,73.40
2022-08-17T09:24:26.783Z,73.00
2022-08-17T09:27:21.138Z,71.80
2022-08-17T09:29:54.216Z,69.70
2022-08-17T09:32:31.894Z,69.10
2022-08-17T09:35:06.126Z,71.10
2022-08-17T09:37:50.422Z,69.80
2022-08-17T09:40:39.096Z,69.20
2022-08-17T09:43:22.873Z,68.40
2022-08-17T09:45:52.723Z,68.00
2022-08-17T09:48:19.763Z,66.20
2022-08-17T09:51:06.546Z,67.60
2022-08-17T09:53:37.258Z,67.90
2022-08-17T09:56:28.874Z,67.20
2022-08-17T09:59:08.192Z,67.80
2022-08-17T10:01:40.652Z,78.00
2022-08-17T10:04:29.512Z,63.70
2022-08-17T10:07:27.528Z,63.50
2022-08-17T10:10:00.890Z,62.20
2022-08-17T10:12:46.407Z,59.40
2022-08-17T10:15:22.954Z,57.90
2022-08-17T10:18:13.667Z,60.00
2022-08-17T10:20:46.567Z,58.50
2022-08-17T10:23:36.794Z,58.20
2022-08-17T10:26:14.763Z,59.70
2022-08-17T10:28:54.102Z,60.30
2022-08-17T10:31:35.205Z,62.10
2022-08-17T10:34:03.019Z,61.50
2022-08-17T10:44:40.516Z,56.80
2022-08-17T10:47:11.657Z,56.70
2022-08-17T10:49:40.757Z,56.40
2022-08-17T10:52:27.931Z,56.20
2022-08-17T10:54:58.183Z,56.60
2022-08-17T10:57:34.946Z,57.00
2022-08-17T11:00:09.725Z,56.00
2022-08-17T11:02:49.908Z,56.10
2022-08-17T11:05:40.104Z,56.20
2022-08-17T11:08:45.113Z,55.10
2022-08-17T11:11:36.587Z,56.90
2022-08-17T11:14:48.480Z,57.60
2022-08-17T11:17:41.619Z,55.90
2022-08-17T11:20:20.518Z,55.60
2022-08-17T11:23:23.210Z,57.20
2022-08-17T11:25:58.207Z,55.80
2022-08-17T11:28:26.872Z,54.60
2022-08-17T11:31:23.975Z,53.00
2022-08-17T11:34:20.529Z,51.60
2022-08-17T11:37:23.304Z,54.10
2022-08-17T11:40:15.322Z,52.60
2022-08-17T11:43:39.511Z,53.40
2022-08-17T11:46:12.512Z,58.60
2022-08-17T12:26:36.870Z,40.10
2022-08-17T12:29:18.015Z,39.10
2022-08-17T12:31:59.628Z,38.90
2022-08-17T12:34:29.003Z,40.40
2022-08-17T12:37:00.216Z,39.40
2022-08-17T12:39:27.627Z,38.50
2022-08-17T12:42:02.693Z,38.40
2022-08-17T12:44:36.184Z,37.70
2022-08-17T12:47:22.674Z,37.30
2022-08-17T12:53:20.178Z,36.80
2022-08-17T12:55:47.837Z,38.60
2022-08-17T13:05:36.287Z,35.00
2022-08-17T13:08:21.160Z,35.20
2022-08-17T13:13:50.918Z,35.10
2022-08-17T13:16:23.211Z,35.70
2022-08-17T13:18:55.113Z,36.40
2022-08-17T13:21:27.073Z,35.50
2022-08-17T13:24:01.457Z,37.40
2022-08-17T13:26:37.558Z,38.20
2022-08-17T13:29:24.107Z,37.60
2022-08-17T13:42:51.448Z,58.10
2022-08-17T13:48:21.912Z,51.30
2022-08-17T13:50:54.999Z,52.20
2022-08-17T13:53:33.241Z,50.00
2022-08-17T13:56:37.606Z,48.10
2022-08-17T13:59:01.260Z,47.40
2022-08-17T14:01:53.386Z,46.50
2022-08-17T14:04:25.719Z,45.60
2022-08-17T14:07:10.695Z,46.00
2022-08-17T14:09:43.883Z,45.90
2022-08-17T14:12:12.617Z,45.10
2022-08-17T14:14:39.714Z,45.80
2022-08-17T14:17:08.179Z,45.20
2022-08-17T14:19:36.378Z,45.30
2022-08-17T14:22:03.948Z,45.00
2022-08-17T14:27:22.501Z,44.70
2022-08-17T14:29:49.559Z,43.50
2022-08-17T14:47:37.283Z,47.20
2022-08-17T14:50:06.347Z,48.90
2022-08-17T14:52:36.058Z,48.60
2022-08-17T14:55:04.088Z,47.70
2022-08-17T15:03:47.220Z,45.00
2022-08-17T15:06:16.341Z,47.60
2022-08-17T15:08:43.670Z,48.90
2022-08-17T15:11:14.338Z,50.10
2022-08-17T15:13:52.958Z,50.60
2022-08-17T15:16:20.662Z,50.40
2022-08-17T15:18:48.447Z,51.30
2022-08-17T15:21:16.046Z,51.90
2022-08-17T15:23:43.102Z,51.20
2022-08-17T15:26:11.148Z,52.10
2022-08-17T15:28:38.134Z,52.40
2022-08-17T15:31:06.779Z,53.80
2022-08-17T15:33:34.181Z,52.90
2022-08-17T15:36:03.092Z,53.70
2022-08-17T15:38:30.892Z,54.50
2022-08-17T15:40:58.668Z,54.10
2022-08-17T15:43:28.307Z,54.70
2022-08-17T15:46:00.912Z,55.20
2022-08-17T15:48:41.567Z,56.10
2022-08-17T15:51:19.606Z,56.60
2022-08-17T15:53:48.824Z,56.40
2022-08-17T15:56:16.423Z,56.90
2022-08-17T15:58:43.976Z,57.50
2022-08-17T16:01:16.751Z,58.20
2022-08-17T16:04:04.502Z,58.40
2022-08-17T16:06:33.596Z,59.30
2022-08-17T16:09:00.787Z,59.80
2022-08-17T16:11:27.783Z,60.40
2022-08-17T16:13:56.171Z,61.00
2022-08-17T16:16:23.884Z,62.40
2022-08-17T16:18:53.564Z,64.20
2022-08-17T16:21:27.222Z,64.80
2022-08-17T16:24:05.810Z,65.90
2022-08-17T16:26:40.577Z,67.80
2022-08-17T16:29:07.660Z,70.20
2022-08-17T16:31:36.202Z,72.50
2022-08-17T16:41:48.076Z,73.10
2022-08-17T16:44:16.729Z,74.40
2022-08-17T16:46:45.410Z,74.50
2022-08-17T16:49:27.627Z,70.80
2022-08-17T16:52:03.154Z,72.30
2022-08-17T16:54:30.510Z,72.40
2022-08-17T16:56:57.740Z,71.50
2022-08-17T16:59:30.806Z,71.20
2022-08-17T17:28:08.881Z,94.60
2022-08-17T17:30:49.396Z,96.10
2022-08-17T17:48:42.342Z,99.90
2022-08-17T17:52:06.281Z,99.90
2022-08-17T17:54:34.211Z,99.90
2022-08-17T18:27:02.411Z,99.90
2022-08-17T18:29:43.144Z,99.90
2022-08-17T18:32:23.950Z,99.90
2022-08-17T18:35:10.614Z,99.90
2022-08-17T18:37:47.705Z,99.90
2022-08-17T18:40:20.674Z,99.90
2022-08-17T18:43:04.762Z,99.90
2022-08-17T18:45:52.178Z,99.90
2022-08-17T18:48:25.663Z,99.90
2022-08-17T18:50:54.468Z,99.90
2022-08-17T18:53:33.182Z,99.90
2022-08-17T18:56:32.441Z,99.90
2022-08-17T19:18:15.100Z,99.90
2022-08-17T19:21:02.994Z,99.90
2022-08-17T19:25:03.743Z,99.90
2022-08-17T19:28:03.157Z,99.90
2022-08-17T19:30:30.695Z,99.90
2022-08-17T19:32:58.579Z,99.90
2022-08-17T19:35:30.827Z,99.90
2022-08-17T19:38:00.710Z,99.90
2022-08-17T19:40:54.805Z,99.90
2022-08-17T19:43:48.142Z,99.90
2022-08-17T19:46:26.330Z,99.90
2022-08-17T19:48:57.232Z,99.90
2022-08-17T19:51:41.093Z,99.90
2022-08-17T19:54:24.038Z,99.90
2022-08-17T19:57:09.072Z,99.90
2022-08-17T19:59:59.835Z,99.90
2022-08-17T20:02:33.310Z,99.90
2022-08-17T20:05:03.591Z,99.90
2022-08-17T20:07:44.751Z,99.90
2022-08-17T20:10:19.714Z,99.90
2022-08-17T20:12:46.951Z,99.90
2022-08-17T20:15:22.512Z,99.90
2022-08-17T20:17:49.676Z,99.90
2022-08-17T20:20:38.563Z,99.90
2022-08-17T20:23:19.961Z,99.90
2022-08-17T20:26:04.025Z,99.90
2022-08-17T20:28:35.282Z,99.90
2022-08-17T20:31:02.802Z,99.90
2022-08-17T20:33:34.415Z,99.90
2022-08-17T20:36:19.336Z,99.90
2022-08-17T20:38:57.006Z,99.90
2022-08-17T20:41:25.887Z,99.90
2022-08-17T20:43:59.251Z,99.90
2022-08-17T20:46:38.729Z,99.90
2022-08-17T20:49:09.083Z,99.90
2022-08-17T20:52:01.942Z,99.90
2022-08-17T20:54:36.991Z,99.90
2022-08-17T20:57:06.769Z,99.90
2022-08-17T20:59:45.046Z,99.90
2022-08-17T21:02:18.457Z,99.90
2022-08-17T21:04:54.804Z,99.90
2022-08-17T21:07:43.682Z,99.90
2022-08-17T21:10:11.088Z,99.90
2022-08-17T21:12:43.005Z,99.90
2022-08-17T21:15:31.835Z,99.90
2022-08-17T21:18:19.154Z,99.90
2022-08-17T21:21:18.182Z,99.90
2022-08-17T21:23:57.428Z,99.90
2022-08-17T21:26:55.694Z,99.90
2022-08-17T21:29:31.889Z,99.90
2022-08-17T21:32:06.318Z,99.90
2022-08-17T23:40:47.261Z,99.90
2022-08-17T23:43:17.570Z,99.90
